createdAt,value
2018-12-03T00:01:49.974Z,21.90
2018-12-03T00:04:19.603Z,21.80
2018-12-03T00:06:47.865Z,21.83
2018-12-03T00:09:16.028Z,21.57
2018-12-03T00:11:44.189Z,20.97
2018-12-03T00:14:12.398Z,19.85
2018-12-03T00:16:40.564Z,19.45
2018-12-03T00:19:08.951Z,18.87
2018-12-03T00:21:37.107Z,19.77
2018-12-03T00:24:05.739Z,18.33
2018-12-03T00:26:33.854Z,14.60
2018-12-03T00:29:01.979Z,15.37
2018-12-03T00:31:30.128Z,15.07
2018-12-03T00:33:58.294Z,15.70
2018-12-03T00:36:26.452Z,15.00
2018-12-03T00:38:54.596Z,14.20
2018-12-03T00:41:22.764Z,14.63
2018-12-03T00:43:50.959Z,14.25
2018-12-03T00:46:19.107Z,13.95
2018-12-03T00:48:47.275Z,14.80
2018-12-03T00:51:15.455Z,13.60
2018-12-03T00:53:43.725Z,15.45
2018-12-03T00:56:11.879Z,13.50
2018-12-03T00:58:40.006Z,14.60
2018-12-03T01:01:08.196Z,12.73
2018-12-03T01:03:36.363Z,13.20
2018-12-03T01:06:04.897Z,14.03
2018-12-03T01:08:33.047Z,15.08
2018-12-03T01:11:01.267Z,14.17
2018-12-03T01:13:29.415Z,15.70
2018-12-03T01:15:57.535Z,15.40
2018-12-03T01:18:25.690Z,17.43
2018-12-03T01:20:54.548Z,18.60
2018-12-03T01:23:22.703Z,19.37
2018-12-03T01:25:50.858Z,21.57
2018-12-03T01:28:19.064Z,22.95
2018-12-03T01:30:47.169Z,22.85
2018-12-03T01:33:15.303Z,25.25
2018-12-03T01:35:43.479Z,23.97
2018-12-03T01:38:11.616Z,29.00
2018-12-03T01:40:39.771Z,25.50
2018-12-03T01:43:07.922Z,28.47
2018-12-03T01:45:36.110Z,25.57
2018-12-03T01:48:04.263Z,26.80
2018-12-03T01:50:32.488Z,24.00
2018-12-03T01:53:00.664Z,25.47
2018-12-03T01:55:28.833Z,25.27
2018-12-03T01:57:56.960Z,27.07
2018-12-03T02:00:25.219Z,26.77
2018-12-03T02:02:53.422Z,26.60
2018-12-03T02:05:21.554Z,26.40
2018-12-03T02:07:49.711Z,25.77
2018-12-03T02:10:17.908Z,25.30
2018-12-03T02:12:46.067Z,25.87
2018-12-03T02:15:15.443Z,24.40
2018-12-03T02:17:43.847Z,24.90
2018-12-03T02:20:13.227Z,25.40
2018-12-03T02:22:41.396Z,24.40
2018-12-03T02:25:10.316Z,24.40
2018-12-03T02:27:38.474Z,23.93
2018-12-03T02:30:12.912Z,25.00
2018-12-03T02:32:41.500Z,24.43
2018-12-03T02:35:10.928Z,24.13
2018-12-03T02:37:39.296Z,23.70
2018-12-03T02:40:10.147Z,26.93
2018-12-03T02:42:38.320Z,23.83
2018-12-03T02:45:09.122Z,22.15
2018-12-03T02:47:37.258Z,24.77
2018-12-03T02:50:07.077Z,22.67
2018-12-03T02:52:35.863Z,22.23
2018-12-03T02:55:04.599Z,21.60
2018-12-03T02:57:32.711Z,21.37
2018-12-03T03:00:00.853Z,22.27
2018-12-03T03:02:29.731Z,20.95
2018-12-03T03:04:57.948Z,21.10
2018-12-03T03:07:26.120Z,23.95
2018-12-03T03:09:54.318Z,24.02
2018-12-03T03:12:22.495Z,20.77
2018-12-03T03:14:50.661Z,20.97
2018-12-03T03:17:18.874Z,20.92
2018-12-03T03:19:47.027Z,22.57
2018-12-03T03:22:15.120Z,25.10
2018-12-03T03:24:43.279Z,24.10
2018-12-03T03:27:11.475Z,23.27
2018-12-03T03:29:39.627Z,21.83
2018-12-03T03:32:07.781Z,23.90
2018-12-03T03:34:35.927Z,21.00
2018-12-03T03:37:04.083Z,22.95
2018-12-03T03:39:32.204Z,24.80
2018-12-03T03:42:00.340Z,22.73
2018-12-03T03:44:28.511Z,23.03
2018-12-03T03:46:56.659Z,24.47
2018-12-03T03:49:24.817Z,23.97
2018-12-03T03:51:52.942Z,22.53
2018-12-03T03:54:25.326Z,24.57
2018-12-03T03:56:49.315Z,23.80
2018-12-03T03:59:17.483Z,25.97
2018-12-03T04:01:45.631Z,23.33
2018-12-03T04:04:13.756Z,26.77
2018-12-03T04:06:41.921Z,27.80
2018-12-03T04:09:10.032Z,28.30
2018-12-03T04:11:38.171Z,26.37
2018-12-03T04:14:06.360Z,27.43
2018-12-03T04:16:34.533Z,28.17
2018-12-03T04:19:02.669Z,25.97
2018-12-03T04:21:30.828Z,27.37
2018-12-03T04:23:58.977Z,27.52
2018-12-03T04:26:27.135Z,28.20
2018-12-03T04:28:55.323Z,26.07
2018-12-03T04:31:23.497Z,25.87
2018-12-03T04:33:51.656Z,26.50
2018-12-03T04:36:19.819Z,25.23
2018-12-03T04:38:47.977Z,26.07
2018-12-03T04:41:16.172Z,25.17
2018-12-03T04:43:44.338Z,28.02
2018-12-03T04:46:12.504Z,24.87
2018-12-03T04:48:40.736Z,27.00
2018-12-03T04:51:08.860Z,27.22
2018-12-03T04:53:37.027Z,24.55
2018-12-03T04:56:05.264Z,27.20
2018-12-03T04:58:33.411Z,24.87
2018-12-03T05:01:01.536Z,25.15
2018-12-03T05:03:29.678Z,24.37
2018-12-03T05:05:57.829Z,26.07
2018-12-03T05:08:25.962Z,26.12
2018-12-03T05:10:54.116Z,26.87
2018-12-03T05:13:22.279Z,26.20
2018-12-03T05:15:50.382Z,24.93
2018-12-03T05:18:18.531Z,25.68
2018-12-03T05:20:46.703Z,23.87
2018-12-03T05:23:14.877Z,23.97
2018-12-03T05:25:43.063Z,24.90
2018-12-03T05:28:11.211Z,23.97
2018-12-03T05:30:39.391Z,22.90
2018-12-03T05:33:07.551Z,24.67
2018-12-03T05:35:35.736Z,25.00
2018-12-03T05:38:03.943Z,23.20
2018-12-03T05:40:32.358Z,26.60
2018-12-03T05:43:00.496Z,23.45
2018-12-03T05:45:28.627Z,23.80
2018-12-03T05:47:56.742Z,28.35
2018-12-03T05:50:24.834Z,24.40
2018-12-03T05:52:53.043Z,24.02
2018-12-03T05:55:21.178Z,22.60
2018-12-03T05:57:49.347Z,23.90
2018-12-03T06:00:18.902Z,24.10
2018-12-03T06:02:47.065Z,23.50
2018-12-03T06:05:15.431Z,25.20
2018-12-03T06:07:43.898Z,23.93
2018-12-03T06:10:14.291Z,24.77
2018-12-03T06:12:42.395Z,23.03
2018-12-03T06:15:12.942Z,22.95
2018-12-03T06:17:41.111Z,22.80
2018-12-03T06:20:14.176Z,21.40
2018-12-03T06:22:42.498Z,24.00
2018-12-03T06:25:16.878Z,22.43
2018-12-03T06:27:44.999Z,21.60
2018-12-03T06:30:15.273Z,21.80
2018-12-03T06:32:44.602Z,21.67
2018-12-03T06:35:13.729Z,22.80
2018-12-03T06:37:41.895Z,22.17
2018-12-03T06:40:14.263Z,21.75
2018-12-03T06:42:42.403Z,24.72
2018-12-03T06:45:13.771Z,22.57
2018-12-03T06:47:43.999Z,24.12
2018-12-03T06:50:12.171Z,22.50
2018-12-03T06:52:40.378Z,22.13
2018-12-03T06:55:10.056Z,24.77
2018-12-03T06:57:38.181Z,22.40
2018-12-03T07:00:14.803Z,23.17
2018-12-03T07:02:43.202Z,23.07
2018-12-03T07:05:11.599Z,22.45
2018-12-03T07:07:40.176Z,24.40
2018-12-03T07:10:13.693Z,24.50
2018-12-03T07:12:41.948Z,21.73
2018-12-03T07:15:11.482Z,19.60
2018-12-03T07:17:39.630Z,16.80
2018-12-03T07:20:12.719Z,6.80
2018-12-03T07:22:41.010Z,7.60
2018-12-03T07:25:11.295Z,7.60
2018-12-03T07:27:39.504Z,7.03
2018-12-03T07:30:17.831Z,6.47
2018-12-03T07:32:47.284Z,7.53
2018-12-03T07:35:15.431Z,11.77
2018-12-03T07:37:43.617Z,12.87
2018-12-03T07:40:12.486Z,13.33
2018-12-03T07:42:41.579Z,12.97
2018-12-03T07:45:19.740Z,12.97
2018-12-03T07:47:47.904Z,13.80
2018-12-03T07:50:18.005Z,14.87
2018-12-03T07:52:46.203Z,13.25
2018-12-03T07:55:18.455Z,13.40
2018-12-03T07:57:51.483Z,14.13
2018-12-03T08:00:22.728Z,14.30
2018-12-03T08:02:50.818Z,14.43
2018-12-03T08:05:18.959Z,13.70
2018-12-03T08:07:47.090Z,15.20
2018-12-03T08:10:16.423Z,13.57
2018-12-03T08:12:45.149Z,13.73
2018-12-03T08:15:17.412Z,13.40
2018-12-03T08:17:49.654Z,11.50
2018-12-03T08:20:21.361Z,13.50
2018-12-03T08:22:51.500Z,11.75
2018-12-03T08:25:20.424Z,10.95
2018-12-03T08:27:48.567Z,11.67
2018-12-03T08:30:16.704Z,11.83
2018-12-03T08:32:44.839Z,12.00
2018-12-03T08:35:14.531Z,11.37
2018-12-03T08:37:42.760Z,11.93
2018-12-03T08:40:18.240Z,12.00
2018-12-03T08:42:51.064Z,11.23
2018-12-03T08:45:19.815Z,11.23
2018-12-03T08:47:48.386Z,10.80
2018-12-03T08:50:19.437Z,9.80
2018-12-03T08:52:47.571Z,9.70
2018-12-03T08:55:15.684Z,11.15
2018-12-03T08:57:43.783Z,9.63
2018-12-03T09:00:15.351Z,10.00
2018-12-03T09:02:57.247Z,10.87
2018-12-03T09:05:26.283Z,11.33
2018-12-03T09:07:54.411Z,10.00
2018-12-03T09:10:23.137Z,10.58
2018-12-03T09:12:51.453Z,10.80
2018-12-03T09:15:19.619Z,13.40
2018-12-03T09:17:47.784Z,11.77
2018-12-03T09:20:15.936Z,10.70
2018-12-03T09:22:44.076Z,10.63
2018-12-03T09:25:22.563Z,9.57
2018-12-03T09:27:50.723Z,10.07
2018-12-03T09:30:19.134Z,9.50
2018-12-03T09:32:49.387Z,10.40
2018-12-03T09:35:17.511Z,9.15
2018-12-03T09:37:45.688Z,10.35
2018-12-03T09:40:16.484Z,9.13
2018-12-03T09:42:44.595Z,9.70
2018-12-03T09:45:15.663Z,9.20
2018-12-03T09:47:43.904Z,8.50
2018-12-03T09:50:18.112Z,8.27
2018-12-03T09:52:46.254Z,8.60
2018-12-03T09:55:16.105Z,8.57
2018-12-03T09:57:44.339Z,8.50
2018-12-03T10:00:17.913Z,9.60
2018-12-03T10:02:46.259Z,8.80
2018-12-03T10:05:15.729Z,8.57
2018-12-03T10:07:43.857Z,8.95
2018-12-03T10:10:13.788Z,8.40
2018-12-03T10:12:41.895Z,8.43
2018-12-03T10:15:12.077Z,9.53
2018-12-03T10:17:40.199Z,10.70
2018-12-03T10:20:10.731Z,9.23
2018-12-03T10:22:39.396Z,8.73
2018-12-03T10:25:14.103Z,8.03
2018-12-03T10:27:42.438Z,8.15
2018-12-03T10:30:26.607Z,8.43
2018-12-03T10:32:54.854Z,8.20
2018-12-03T10:35:22.967Z,6.90
2018-12-03T10:37:51.119Z,6.47
2018-12-03T10:40:20.722Z,7.60
2018-12-03T10:42:49.593Z,6.20
2018-12-03T10:45:25.952Z,6.07
2018-12-03T10:47:48.870Z,5.50
2018-12-03T10:50:22.294Z,6.20
2018-12-03T10:52:47.172Z,5.97
2018-12-03T10:55:15.281Z,6.07
2018-12-03T10:57:44.787Z,5.83
2018-12-03T11:00:21.208Z,6.77
2018-12-03T11:02:56.850Z,6.03
2018-12-03T11:05:35.576Z,6.60
2018-12-03T11:08:03.800Z,6.60
2018-12-03T11:10:34.358Z,5.87
2018-12-03T11:13:02.490Z,5.90
2018-12-03T11:15:30.623Z,5.40
2018-12-03T11:17:59.403Z,6.23
2018-12-03T11:20:27.532Z,6.70
2018-12-03T11:22:55.637Z,5.97
2018-12-03T11:25:29.551Z,6.37
2018-12-03T11:28:02.045Z,5.93
2018-12-03T11:30:30.660Z,5.50
2018-12-03T11:32:58.796Z,5.87
2018-12-03T11:35:29.475Z,4.75
2018-12-03T11:38:13.798Z,5.62
2018-12-03T11:40:45.367Z,6.00
2018-12-03T11:43:13.483Z,6.20
2018-12-03T11:45:41.590Z,5.70
2018-12-03T11:48:09.683Z,5.43
2018-12-03T11:50:38.063Z,6.77
2018-12-03T11:53:06.189Z,5.15
2018-12-03T11:55:34.294Z,6.35
2018-12-03T11:58:02.460Z,5.17
2018-12-03T12:00:30.579Z,5.83
2018-12-03T12:02:58.745Z,5.65
2018-12-03T12:05:26.843Z,5.78
2018-12-03T12:07:54.996Z,6.33
2018-12-03T12:10:23.119Z,4.92
2018-12-03T12:12:51.332Z,4.35
2018-12-03T12:15:19.463Z,5.37
2018-12-03T12:17:47.563Z,5.70
2018-12-03T12:20:15.711Z,5.27
2018-12-03T12:22:43.795Z,5.10
2018-12-03T12:25:12.999Z,6.00
2018-12-03T12:27:44.532Z,5.72
2018-12-03T12:30:14.354Z,6.60
2018-12-03T12:32:42.477Z,5.40
2018-12-03T12:35:10.882Z,6.10
2018-12-03T12:37:38.987Z,6.30
2018-12-03T12:40:10.771Z,5.20
2018-12-03T12:42:39.072Z,4.50
2018-12-03T12:45:14.331Z,5.30
2018-12-03T12:47:42.451Z,5.55
2018-12-03T12:50:13.520Z,5.30
2018-12-03T12:52:41.651Z,6.90
2018-12-03T12:55:09.751Z,6.00
2018-12-03T12:57:37.863Z,7.80
2018-12-03T13:00:11.359Z,6.25
2018-12-03T13:02:39.520Z,6.87
2018-12-03T13:05:07.702Z,6.80
2018-12-03T13:07:35.819Z,5.23
2018-12-03T13:10:04.475Z,6.87
2018-12-03T13:12:32.586Z,5.47
2018-12-03T13:15:00.689Z,5.70
2018-12-03T13:17:28.791Z,5.93
2018-12-03T13:19:56.942Z,5.80
2018-12-03T13:22:34.051Z,6.23
2018-12-03T13:25:02.351Z,5.77
2018-12-03T13:27:30.463Z,6.93
2018-12-03T13:29:58.583Z,6.83
2018-12-03T13:32:26.694Z,6.50
2018-12-03T13:34:54.803Z,6.57
2018-12-03T13:37:22.925Z,5.50
2018-12-03T13:39:54.079Z,6.47
2018-12-03T13:42:22.208Z,6.00
2018-12-03T13:44:50.315Z,6.70
2018-12-03T13:47:18.411Z,6.43
2018-12-03T13:49:46.519Z,6.33
2018-12-03T13:52:14.627Z,6.70
2018-12-03T13:54:42.738Z,6.23
2018-12-03T13:57:10.853Z,7.07
2018-12-03T13:59:38.938Z,6.67
2018-12-03T14:02:08.727Z,6.43
2018-12-03T14:04:36.909Z,6.12
2018-12-03T14:07:11.119Z,6.53
2018-12-03T14:09:48.634Z,6.58
2018-12-03T14:12:36.866Z,7.17
2018-12-03T14:15:16.436Z,6.90
2018-12-03T14:17:54.831Z,7.00
2018-12-03T14:20:23.687Z,6.90
2018-12-03T14:22:59.630Z,7.53
2018-12-03T14:25:27.739Z,5.62
2018-12-03T14:27:55.852Z,6.80
2018-12-03T14:30:23.967Z,4.83
2018-12-03T14:32:52.091Z,5.00
2018-12-03T14:35:20.196Z,5.07
2018-12-03T14:37:48.339Z,6.53
2018-12-03T14:40:16.446Z,4.95
2018-12-03T14:42:44.531Z,6.25
2018-12-03T14:45:12.837Z,5.10
2018-12-03T14:47:40.938Z,5.20
2018-12-03T14:50:10.447Z,6.70
2018-12-03T14:52:38.555Z,5.83
2018-12-03T14:55:07.446Z,6.53
2018-12-03T14:57:35.537Z,6.50
2018-12-03T15:00:03.704Z,6.00
2018-12-03T15:02:31.761Z,6.10
2018-12-03T15:04:59.869Z,5.77
2018-12-03T15:07:27.967Z,5.83
2018-12-03T15:09:56.096Z,7.10
2018-12-03T15:12:24.191Z,6.33
2018-12-03T15:14:52.352Z,5.20
2018-12-03T15:17:20.456Z,5.80
2018-12-03T15:19:48.572Z,5.50
2018-12-03T15:22:16.671Z,6.67
2018-12-03T15:24:44.793Z,5.67
2018-12-03T15:27:12.929Z,5.73
2018-12-03T15:29:41.064Z,5.67
2018-12-03T15:32:09.195Z,5.75
2018-12-03T15:34:37.327Z,5.20
2018-12-03T15:37:05.452Z,5.40
2018-12-03T15:39:33.554Z,5.57
2018-12-03T15:42:01.679Z,5.60
2018-12-03T15:44:29.795Z,5.80
2018-12-03T15:46:57.922Z,5.85
2018-12-03T15:49:26.059Z,7.00
2018-12-03T15:51:54.166Z,5.42
2018-12-03T15:54:22.283Z,6.53
2018-12-03T15:56:50.379Z,5.80
2018-12-03T15:59:18.490Z,6.73
2018-12-03T16:01:46.616Z,6.97
2018-12-03T16:04:14.827Z,6.17
2018-12-03T16:06:42.908Z,7.20
2018-12-03T16:09:12.480Z,6.97
2018-12-03T16:11:40.579Z,8.07
2018-12-03T16:14:08.683Z,7.50
2018-12-03T16:16:36.791Z,8.05
2018-12-03T16:19:04.986Z,9.97
2018-12-03T16:21:33.089Z,7.83
2018-12-03T16:24:01.183Z,8.63
2018-12-03T16:26:29.311Z,8.80
2018-12-03T16:28:57.419Z,7.07
2018-12-03T16:31:25.550Z,9.27
2018-12-03T16:33:53.651Z,8.57
2018-12-03T16:36:21.863Z,8.23
2018-12-03T16:38:50.000Z,8.90
2018-12-03T16:41:18.163Z,9.57
2018-12-03T16:43:46.293Z,8.33
2018-12-03T16:46:14.426Z,8.57
2018-12-03T16:48:42.534Z,9.30
2018-12-03T16:51:10.640Z,9.90
2018-12-03T16:53:39.195Z,11.25
2018-12-03T16:56:07.315Z,8.83
2018-12-03T16:58:35.428Z,11.10
2018-12-03T17:01:03.531Z,10.23
2018-12-03T17:03:31.679Z,10.48
2018-12-03T17:05:59.796Z,10.43
2018-12-03T17:08:27.963Z,11.03
2018-12-03T17:10:56.213Z,10.93
2018-12-03T17:13:24.319Z,11.20
2018-12-03T17:15:52.487Z,11.53
2018-12-03T17:18:20.600Z,10.90
2018-12-03T17:22:59.179Z,11.03
2018-12-03T17:25:27.859Z,10.93
2018-12-03T17:27:55.979Z,11.03
2018-12-03T17:31:34.235Z,10.30
2018-12-03T17:34:02.313Z,12.17
2018-12-03T17:36:30.441Z,9.27
2018-12-03T17:38:58.571Z,10.83
2018-12-03T17:41:26.691Z,10.40
2018-12-03T17:43:54.878Z,13.10
2018-12-03T17:46:23.008Z,10.50
2018-12-03T17:48:51.404Z,11.43
2018-12-03T17:51:19.577Z,10.77
2018-12-03T17:53:47.771Z,10.80
2018-12-03T17:56:15.962Z,11.00
2018-12-03T17:58:44.111Z,10.80
2018-12-03T18:01:12.225Z,11.70
2018-12-03T18:03:40.685Z,12.10
2018-12-03T18:06:08.971Z,10.83
2018-12-03T18:08:37.151Z,12.10
2018-12-03T18:11:05.332Z,13.00
2018-12-03T18:13:33.501Z,13.83
2018-12-03T18:16:01.659Z,13.07
2018-12-03T18:18:29.776Z,12.80
2018-12-03T18:20:57.911Z,11.67
2018-12-03T18:23:26.060Z,12.30
2018-12-03T18:25:54.251Z,12.33
2018-12-03T18:28:22.363Z,11.87
2018-12-03T18:30:50.511Z,12.50
2018-12-03T18:33:18.685Z,11.80
2018-12-03T18:35:46.794Z,11.40
2018-12-03T18:38:14.963Z,12.98
2018-12-03T18:40:43.057Z,11.18
2018-12-03T18:43:11.191Z,12.23
2018-12-03T18:45:39.285Z,14.80
2018-12-03T18:48:09.395Z,12.20
2018-12-03T18:50:38.808Z,13.47
2018-12-03T18:53:17.635Z,13.58
2018-12-03T18:55:45.793Z,12.20
2018-12-03T18:58:16.384Z,11.83
2018-12-03T19:00:44.497Z,14.40
2018-12-03T19:03:12.655Z,12.50
2018-12-03T19:05:40.814Z,12.60
2018-12-03T19:08:08.957Z,13.70
2018-12-03T19:10:37.178Z,12.77
2018-12-03T19:13:05.337Z,13.30
2018-12-03T19:15:33.455Z,12.90
2018-12-03T19:18:01.945Z,13.30
2018-12-03T19:20:30.078Z,13.07
2018-12-03T19:22:58.202Z,12.17
2018-12-03T19:25:26.319Z,12.10
2018-12-03T19:27:54.452Z,12.63
2018-12-03T19:30:22.588Z,12.93
2018-12-03T19:32:50.737Z,12.20
2018-12-03T19:35:18.963Z,12.20
2018-12-03T19:37:47.084Z,11.83
2018-12-03T19:40:15.259Z,13.00
2018-12-03T19:42:43.387Z,10.70
2018-12-03T19:45:11.511Z,12.23
2018-12-03T19:47:39.635Z,11.80
2018-12-03T19:50:08.700Z,10.73
2018-12-03T19:52:37.640Z,10.20
2018-12-03T19:55:08.169Z,10.43
2018-12-03T19:57:36.881Z,10.03
2018-12-03T20:00:08.539Z,11.67
2018-12-03T20:02:36.686Z,11.10
2018-12-03T20:05:10.017Z,10.40
2018-12-03T20:07:38.523Z,13.10
2018-12-03T20:10:07.920Z,11.87
2018-12-03T20:12:36.039Z,11.35
2018-12-03T20:15:05.009Z,12.10
2018-12-03T20:17:36.396Z,13.23
2018-12-03T20:20:07.227Z,11.45
2018-12-03T20:23:01.124Z,12.63
2018-12-03T20:25:34.207Z,12.10
2018-12-03T20:28:09.967Z,12.20
2018-12-03T20:30:53.914Z,12.80
2018-12-03T20:33:26.342Z,13.00
2018-12-03T20:36:06.845Z,13.03
2018-12-03T20:38:45.323Z,13.67
2018-12-03T20:41:17.805Z,13.77
2018-12-03T20:43:47.620Z,15.08
2018-12-03T20:46:24.423Z,13.80
2018-12-03T20:51:04.943Z,13.47
2018-12-03T20:53:38.100Z,13.40
2018-12-03T20:56:06.443Z,12.80
2018-12-03T20:58:34.588Z,14.05
2018-12-03T21:01:02.715Z,13.67
2018-12-03T21:03:30.840Z,15.15
2018-12-03T21:05:58.991Z,15.30
2018-12-03T21:08:27.119Z,15.45
2018-12-03T21:10:55.239Z,15.78
2018-12-03T21:13:23.848Z,14.83
2018-12-03T21:15:52.052Z,14.03
2018-12-03T21:18:20.203Z,15.55
2018-12-03T21:20:50.289Z,17.85
2018-12-03T21:23:18.487Z,19.20
2018-12-03T21:25:46.687Z,20.48
2018-12-03T21:28:14.979Z,20.60
2018-12-03T21:30:43.141Z,18.97
2018-12-03T21:33:11.251Z,21.57
2018-12-03T21:35:39.364Z,21.07
2018-12-03T21:38:07.571Z,21.03
2018-12-03T21:40:35.715Z,22.03
2018-12-03T21:43:03.890Z,22.87
2018-12-03T21:45:32.076Z,25.00
2018-12-03T21:48:00.243Z,24.50
2018-12-03T21:50:28.423Z,22.67
2018-12-03T21:52:56.562Z,23.23
2018-12-03T21:55:24.715Z,9.37
2018-12-03T21:57:54.245Z,5.90
2018-12-03T22:00:22.373Z,4.97
2018-12-03T22:02:50.494Z,5.00
2018-12-03T22:05:18.673Z,4.87
2018-12-03T22:07:46.846Z,3.40
2018-12-03T22:10:15.254Z,2.70
2018-12-03T22:12:43.417Z,2.73
2018-12-03T22:15:11.563Z,3.57
2018-12-03T22:17:39.707Z,3.27
2018-12-03T22:20:10.292Z,3.43
2018-12-03T22:22:38.487Z,3.47
2018-12-03T22:25:06.880Z,2.70
2018-12-03T22:27:34.986Z,3.33
2018-12-03T22:30:03.407Z,2.87
2018-12-03T22:32:31.556Z,3.10
2018-12-03T22:34:59.688Z,3.43
2018-12-03T22:37:27.835Z,3.27
2018-12-03T22:39:56.074Z,2.90
2018-12-03T22:42:24.202Z,3.67
2018-12-03T22:44:52.330Z,3.30
2018-12-03T22:47:20.447Z,2.60
2018-12-03T22:49:48.591Z,3.30
2018-12-03T22:52:16.738Z,3.80
2018-12-03T22:54:44.886Z,3.02
2018-12-03T22:57:12.994Z,3.10
2018-12-03T22:59:41.130Z,3.03
2018-12-03T23:02:09.278Z,2.80
2018-12-03T23:04:40.436Z,2.55
2018-12-03T23:07:08.690Z,2.12
2018-12-03T23:09:36.826Z,2.55
2018-12-03T23:12:05.021Z,1.70
2018-12-03T23:14:33.187Z,1.87
2018-12-03T23:17:01.316Z,2.10
2018-12-03T23:19:29.430Z,1.80
2018-12-03T23:21:57.547Z,1.73
2018-12-03T23:24:25.725Z,1.63
2018-12-03T23:26:53.836Z,1.70
2018-12-03T23:29:21.993Z,1.90
2018-12-03T23:31:50.139Z,2.33
2018-12-03T23:34:18.307Z,2.97
2018-12-03T23:36:46.444Z,1.70
2018-12-03T23:39:14.528Z,1.80
2018-12-03T23:41:42.682Z,1.60
2018-12-03T23:44:10.823Z,1.80
2018-12-03T23:46:38.953Z,2.77
2018-12-03T23:49:07.091Z,1.60
2018-12-03T23:51:36.328Z,1.63
2018-12-03T23:54:03.399Z,2.77
2018-12-03T23:56:31.539Z,2.10
2018-12-03T23:58:59.741Z,1.70
